sensor_id;sensor_type;location;lat;lon;timestamp;P1;durP1;ratioP1;P2;durP2;ratioP2
13941;SDS011;7043;51.630;7.254;2023-08-21T00:02:25;6.28;;;1.95;;
13941;SDS011;7043;51.630;7.254;2023-08-21T00:04:53;3.05;;;1.63;;
13941;SDS011;7043;51.630;7.254;2023-08-21T00:07:19;3.67;;;1.80;;
13941;SDS011;7043;51.630;7.254;2023-08-21T00:09:45;4.68;;;2.05;;
13941;SDS011;7043;51.630;7.254;2023-08-21T00:12:11;7.45;;;2.25;;
13941;SDS011;7043;51.630;7.254;2023-08-21T00:14:37;3.42;;;1.55;;
13941;SDS011;7043;51.630;7.254;2023-08-21T00:17:03;4.93;;;1.60;;
13941;SDS011;7043;51.630;7.254;2023-08-21T00:19:29;3.67;;;1.60;;
13941;SDS011;7043;51.630;7.254;2023-08-21T00:21:55;5.13;;;1.85;;
13941;SDS011;7043;51.630;7.254;2023-08-21T00:24:21;5.18;;;1.45;;
13941;SDS011;7043;51.630;7.254;2023-08-21T00:26:47;5.05;;;2.67;;
13941;SDS011;7043;51.630;7.254;2023-08-21T00:29:13;5.47;;;1.77;;
13941;SDS011;7043;51.630;7.254;2023-08-21T00:31:39;3.58;;;1.70;;
13941;SDS011;7043;51.630;7.254;2023-08-21T00:34:05;3.00;;;1.75;;
13941;SDS011;7043;51.630;7.254;2023-08-21T00:36:31;5.57;;;1.60;;
13941;SDS011;7043;51.630;7.254;2023-08-21T00:38:57;3.88;;;1.90;;
13941;SDS011;7043;51.630;7.254;2023-08-21T00:41:23;4.60;;;1.48;;
13941;SDS011;7043;51.630;7.254;2023-08-21T00:43:49;4.60;;;1.55;;
13941;SDS011;7043;51.630;7.254;2023-08-21T00:46:15;4.95;;;1.40;;
13941;SDS011;7043;51.630;7.254;2023-08-21T00:48:42;4.93;;;1.80;;
13941;SDS011;7043;51.630;7.254;2023-08-21T00:51:08;4.60;;;1.70;;
13941;SDS011;7043;51.630;7.254;2023-08-21T00:53:34;3.30;;;1.67;;
13941;SDS011;7043;51.630;7.254;2023-08-21T00:56:00;3.38;;;1.45;;
13941;SDS011;7043;51.630;7.254;2023-08-21T00:58:27;4.35;;;1.67;;
13941;SDS011;7043;51.630;7.254;2023-08-21T01:00:53;5.32;;;1.83;;
13941;SDS011;7043;51.630;7.254;2023-08-21T01:03:19;4.43;;;1.60;;
13941;SDS011;7043;51.630;7.254;2023-08-21T01:05:45;6.47;;;1.60;;
13941;SDS011;7043;51.630;7.254;2023-08-21T01:11:02;4.20;;;1.80;;
13941;SDS011;7043;51.630;7.254;2023-08-21T01:16:14;4.20;;;1.88;;
13941;SDS011;7043;51.630;7.254;2023-08-21T01:18:42;3.13;;;1.77;;
13941;SDS011;7043;51.630;7.254;2023-08-21T01:21:10;5.25;;;1.80;;
13941;SDS011;7043;51.630;7.254;2023-08-21T01:23:37;3.97;;;1.65;;
13941;SDS011;7043;51.630;7.254;2023-08-21T01:26:03;3.97;;;1.88;;
13941;SDS011;7043;51.630;7.254;2023-08-21T01:28:30;2.88;;;1.60;;
13941;SDS011;7043;51.630;7.254;2023-08-21T01:31:08;4.18;;;1.80;;
13941;SDS011;7043;51.630;7.254;2023-08-21T01:33:39;4.88;;;1.73;;
13941;SDS011;7043;51.630;7.254;2023-08-21T01:36:06;4.30;;;1.55;;
13941;SDS011;7043;51.630;7.254;2023-08-21T01:38:32;3.95;;;1.58;;
13941;SDS011;7043;51.630;7.254;2023-08-21T01:41:00;3.50;;;1.80;;
13941;SDS011;7043;51.630;7.254;2023-08-21T01:43:26;4.22;;;2.05;;
13941;SDS011;7043;51.630;7.254;2023-08-21T01:45:52;4.72;;;1.88;;
13941;SDS011;7043;51.630;7.254;2023-08-21T01:48:18;6.55;;;1.60;;
13941;SDS011;7043;51.630;7.254;2023-08-21T01:50:44;4.30;;;1.73;;
13941;SDS011;7043;51.630;7.254;2023-08-21T01:53:10;4.20;;;1.75;;
13941;SDS011;7043;51.630;7.254;2023-08-21T01:55:36;5.78;;;2.10;;
13941;SDS011;7043;51.630;7.254;2023-08-21T01:58:02;6.78;;;1.85;;
13941;SDS011;7043;51.630;7.254;2023-08-21T02:00:28;4.22;;;1.73;;
13941;SDS011;7043;51.630;7.254;2023-08-21T02:02:54;4.38;;;1.80;;
13941;SDS011;7043;51.630;7.254;2023-08-21T02:05:20;4.90;;;2.00;;
13941;SDS011;7043;51.630;7.254;2023-08-21T02:07:46;5.32;;;1.95;;
13941;SDS011;7043;51.630;7.254;2023-08-21T02:10:12;3.50;;;1.60;;
13941;SDS011;7043;51.630;7.254;2023-08-21T02:12:38;4.63;;;1.42;;
13941;SDS011;7043;51.630;7.254;2023-08-21T02:15:05;4.80;;;1.80;;
13941;SDS011;7043;51.630;7.254;2023-08-21T02:17:31;3.92;;;1.88;;
13941;SDS011;7043;51.630;7.254;2023-08-21T02:19:57;5.22;;;1.75;;
13941;SDS011;7043;51.630;7.254;2023-08-21T02:22:23;4.63;;;1.67;;
13941;SDS011;7043;51.630;7.254;2023-08-21T02:24:50;5.00;;;1.70;;
13941;SDS011;7043;51.630;7.254;2023-08-21T02:27:16;6.47;;;1.90;;
13941;SDS011;7043;51.630;7.254;2023-08-21T02:29:42;4.38;;;1.85;;
13941;SDS011;7043;51.630;7.254;2023-08-21T02:32:08;3.40;;;1.73;;
13941;SDS011;7043;51.630;7.254;2023-08-21T02:34:34;6.05;;;1.88;;
13941;SDS011;7043;51.630;7.254;2023-08-21T02:37:00;4.63;;;1.88;;
13941;SDS011;7043;51.630;7.254;2023-08-21T02:39:26;5.28;;;2.10;;
13941;SDS011;7043;51.630;7.254;2023-08-21T02:41:52;2.75;;;1.50;;
13941;SDS011;7043;51.630;7.254;2023-08-21T02:44:18;4.97;;;1.65;;
13941;SDS011;7043;51.630;7.254;2023-08-21T02:46:44;4.22;;;1.65;;
13941;SDS011;7043;51.630;7.254;2023-08-21T02:49:10;6.18;;;1.90;;
13941;SDS011;7043;51.630;7.254;2023-08-21T02:51:36;5.78;;;2.03;;
13941;SDS011;7043;51.630;7.254;2023-08-21T02:54:02;5.13;;;1.73;;
13941;SDS011;7043;51.630;7.254;2023-08-21T02:56:28;4.03;;;1.60;;
13941;SDS011;7043;51.630;7.254;2023-08-21T02:58:54;3.47;;;1.60;;
13941;SDS011;7043;51.630;7.254;2023-08-21T03:01:20;4.30;;;1.80;;
13941;SDS011;7043;51.630;7.254;2023-08-21T03:03:46;4.93;;;1.70;;
13941;SDS011;7043;51.630;7.254;2023-08-21T03:06:12;5.05;;;1.85;;
13941;SDS011;7043;51.630;7.254;2023-08-21T03:08:37;4.25;;;1.90;;
13941;SDS011;7043;51.630;7.254;2023-08-21T03:11:03;5.80;;;2.13;;
13941;SDS011;7043;51.630;7.254;2023-08-21T03:13:29;5.53;;;1.77;;
13941;SDS011;7043;51.630;7.254;2023-08-21T03:15:55;5.75;;;2.20;;
13941;SDS011;7043;51.630;7.254;2023-08-21T03:18:21;5.57;;;1.73;;
13941;SDS011;7043;51.630;7.254;2023-08-21T03:20:47;6.05;;;2.20;;
13941;SDS011;7043;51.630;7.254;2023-08-21T03:23:13;5.90;;;1.88;;
13941;SDS011;7043;51.630;7.254;2023-08-21T03:25:39;5.25;;;2.53;;
13941;SDS011;7043;51.630;7.254;2023-08-21T03:28:05;5.00;;;2.10;;
13941;SDS011;7043;51.630;7.254;2023-08-21T03:30:31;4.03;;;2.00;;
13941;SDS011;7043;51.630;7.254;2023-08-21T03:32:57;6.68;;;1.92;;
13941;SDS011;7043;51.630;7.254;2023-08-21T03:35:23;5.95;;;2.03;;
13941;SDS011;7043;51.630;7.254;2023-08-21T03:37:49;4.32;;;2.00;;
13941;SDS011;7043;51.630;7.254;2023-08-21T03:40:15;5.28;;;2.25;;
13941;SDS011;7043;51.630;7.254;2023-08-21T03:42:41;7.75;;;2.45;;
13941;SDS011;7043;51.630;7.254;2023-08-21T03:45:08;7.00;;;2.05;;
13941;SDS011;7043;51.630;7.254;2023-08-21T03:47:34;5.03;;;1.98;;
13941;SDS011;7043;51.630;7.254;2023-08-21T03:50:00;7.47;;;2.30;;
13941;SDS011;7043;51.630;7.254;2023-08-21T03:52:26;4.35;;;2.13;;
13941;SDS011;7043;51.630;7.254;2023-08-21T03:54:52;5.13;;;1.90;;
13941;SDS011;7043;51.630;7.254;2023-08-21T03:57:18;3.88;;;1.75;;
13941;SDS011;7043;51.630;7.254;2023-08-21T03:59:44;5.55;;;2.30;;
13941;SDS011;7043;51.630;7.254;2023-08-21T04:02:10;3.65;;;2.05;;
13941;SDS011;7043;51.630;7.254;2023-08-21T04:04:36;5.18;;;2.00;;
13941;SDS011;7043;51.630;7.254;2023-08-21T04:07:02;6.57;;;2.30;;
13941;SDS011;7043;51.630;7.254;2023-08-21T04:09:28;6.65;;;2.35;;
13941;SDS011;7043;51.630;7.254;2023-08-21T04:11:54;7.18;;;2.20;;
13941;SDS011;7043;51.630;7.254;2023-08-21T04:14:20;7.07;;;2.42;;
13941;SDS011;7043;51.630;7.254;2023-08-21T04:16:46;5.22;;;1.90;;
13941;SDS011;7043;51.630;7.254;2023-08-21T04:19:12;5.18;;;2.33;;
13941;SDS011;7043;51.630;7.254;2023-08-21T04:21:38;4.50;;;2.22;;
13941;SDS011;7043;51.630;7.254;2023-08-21T04:24:04;4.22;;;1.92;;
13941;SDS011;7043;51.630;7.254;2023-08-21T04:26:30;5.25;;;2.08;;
13941;SDS011;7043;51.630;7.254;2023-08-21T04:29:02;4.88;;;1.98;;
13941;SDS011;7043;51.630;7.254;2023-08-21T04:31:28;5.13;;;2.20;;
13941;SDS011;7043;51.630;7.254;2023-08-21T04:33:54;4.35;;;1.92;;
13941;SDS011;7043;51.630;7.254;2023-08-21T04:36:20;4.20;;;2.20;;
13941;SDS011;7043;51.630;7.254;2023-08-21T04:38:46;6.30;;;2.25;;
13941;SDS011;7043;51.630;7.254;2023-08-21T04:41:15;5.97;;;2.22;;
13941;SDS011;7043;51.630;7.254;2023-08-21T04:43:41;5.47;;;2.35;;
13941;SDS011;7043;51.630;7.254;2023-08-21T04:46:07;5.40;;;1.90;;
13941;SDS011;7043;51.630;7.254;2023-08-21T04:48:33;4.88;;;2.00;;
13941;SDS011;7043;51.630;7.254;2023-08-21T04:50:59;7.50;;;2.30;;
13941;SDS011;7043;51.630;7.254;2023-08-21T04:53:25;3.88;;;2.25;;
13941;SDS011;7043;51.630;7.254;2023-08-21T04:55:52;5.32;;;2.45;;
13941;SDS011;7043;51.630;7.254;2023-08-21T04:58:18;6.75;;;2.70;;
13941;SDS011;7043;51.630;7.254;2023-08-21T05:00:45;5.13;;;2.50;;
13941;SDS011;7043;51.630;7.254;2023-08-21T05:03:13;5.20;;;2.85;;
13941;SDS011;7043;51.630;7.254;2023-08-21T05:05:39;6.95;;;3.25;;
13941;SDS011;7043;51.630;7.254;2023-08-21T05:08:05;5.25;;;2.97;;
13941;SDS011;7043;51.630;7.254;2023-08-21T05:10:31;6.38;;;2.97;;
13941;SDS011;7043;51.630;7.254;2023-08-21T05:12:57;5.93;;;2.78;;
13941;SDS011;7043;51.630;7.254;2023-08-21T05:15:23;6.57;;;2.70;;
13941;SDS011;7043;51.630;7.254;2023-08-21T05:17:49;6.93;;;3.25;;
13941;SDS011;7043;51.630;7.254;2023-08-21T05:20:15;5.47;;;2.92;;
13941;SDS011;7043;51.630;7.254;2023-08-21T05:22:42;5.97;;;2.53;;
13941;SDS011;7043;51.630;7.254;2023-08-21T05:25:09;7.05;;;3.13;;
13941;SDS011;7043;51.630;7.254;2023-08-21T05:27:36;7.95;;;3.58;;
13941;SDS011;7043;51.630;7.254;2023-08-21T05:30:02;4.75;;;3.15;;
13941;SDS011;7043;51.630;7.254;2023-08-21T05:32:28;5.53;;;2.90;;
13941;SDS011;7043;51.630;7.254;2023-08-21T05:34:54;6.80;;;3.10;;
13941;SDS011;7043;51.630;7.254;2023-08-21T05:37:20;7.32;;;3.30;;
13941;SDS011;7043;51.630;7.254;2023-08-21T05:39:46;6.22;;;3.17;;
13941;SDS011;7043;51.630;7.254;2023-08-21T05:42:13;7.07;;;3.03;;
13941;SDS011;7043;51.630;7.254;2023-08-21T05:44:39;4.63;;;2.70;;
13941;SDS011;7043;51.630;7.254;2023-08-21T05:47:05;6.63;;;3.15;;
13941;SDS011;7043;51.630;7.254;2023-08-21T05:49:31;7.90;;;3.08;;
13941;SDS011;7043;51.630;7.254;2023-08-21T05:51:57;8.25;;;3.53;;
13941;SDS011;7043;51.630;7.254;2023-08-21T05:54:24;8.68;;;3.13;;
13941;SDS011;7043;51.630;7.254;2023-08-21T05:56:51;5.40;;;3.35;;
13941;SDS011;7043;51.630;7.254;2023-08-21T05:59:26;6.70;;;3.85;;
13941;SDS011;7043;51.630;7.254;2023-08-21T06:01:53;6.93;;;3.40;;
13941;SDS011;7043;51.630;7.254;2023-08-21T06:04:20;6.35;;;3.50;;
13941;SDS011;7043;51.630;7.254;2023-08-21T06:06:46;6.65;;;3.63;;
13941;SDS011;7043;51.630;7.254;2023-08-21T06:09:12;6.78;;;3.40;;
13941;SDS011;7043;51.630;7.254;2023-08-21T06:11:38;7.78;;;3.78;;
13941;SDS011;7043;51.630;7.254;2023-08-21T06:14:04;6.30;;;3.47;;
13941;SDS011;7043;51.630;7.254;2023-08-21T06:16:30;6.78;;;3.85;;
13941;SDS011;7043;51.630;7.254;2023-08-21T06:18:56;7.15;;;3.88;;
13941;SDS011;7043;51.630;7.254;2023-08-21T06:21:22;7.00;;;3.60;;
13941;SDS011;7043;51.630;7.254;2023-08-21T06:23:48;5.93;;;3.33;;
13941;SDS011;7043;51.630;7.254;2023-08-21T06:26:14;5.57;;;2.78;;
13941;SDS011;7043;51.630;7.254;2023-08-21T06:28:40;5.70;;;2.60;;
13941;SDS011;7043;51.630;7.254;2023-08-21T06:31:08;6.18;;;3.13;;
13941;SDS011;7043;51.630;7.254;2023-08-21T06:33:34;5.68;;;2.97;;
13941;SDS011;7043;51.630;7.254;2023-08-21T06:36:00;3.90;;;2.60;;
13941;SDS011;7043;51.630;7.254;2023-08-21T06:38:26;4.50;;;2.90;;
13941;SDS011;7043;51.630;7.254;2023-08-21T06:40:52;8.23;;;3.03;;
13941;SDS011;7043;51.630;7.254;2023-08-21T06:43:20;5.50;;;2.70;;
13941;SDS011;7043;51.630;7.254;2023-08-21T06:45:46;5.82;;;2.60;;
13941;SDS011;7043;51.630;7.254;2023-08-21T06:48:12;5.68;;;2.92;;
13941;SDS011;7043;51.630;7.254;2023-08-21T06:50:38;5.25;;;2.90;;
13941;SDS011;7043;51.630;7.254;2023-08-21T06:53:04;8.27;;;2.55;;
13941;SDS011;7043;51.630;7.254;2023-08-21T06:55:30;4.43;;;2.67;;
13941;SDS011;7043;51.630;7.254;2023-08-21T06:57:57;4.60;;;2.70;;
13941;SDS011;7043;51.630;7.254;2023-08-21T07:00:23;4.72;;;2.20;;
13941;SDS011;7043;51.630;7.254;2023-08-21T07:02:49;7.22;;;3.28;;
13941;SDS011;7043;51.630;7.254;2023-08-21T07:05:15;5.55;;;2.88;;
13941;SDS011;7043;51.630;7.254;2023-08-21T07:07:41;5.97;;;3.10;;
13941;SDS011;7043;51.630;7.254;2023-08-21T07:10:07;5.53;;;3.00;;
13941;SDS011;7043;51.630;7.254;2023-08-21T07:12:33;7.15;;;3.00;;
13941;SDS011;7043;51.630;7.254;2023-08-21T07:14:59;3.53;;;2.40;;
13941;SDS011;7043;51.630;7.254;2023-08-21T07:17:25;5.20;;;2.40;;
13941;SDS011;7043;51.630;7.254;2023-08-21T07:19:51;4.70;;;2.67;;
13941;SDS011;7043;51.630;7.254;2023-08-21T07:22:18;4.95;;;2.60;;
13941;SDS011;7043;51.630;7.254;2023-08-21T07:24:44;5.72;;;2.75;;
13941;SDS011;7043;51.630;7.254;2023-08-21T07:27:10;5.22;;;3.03;;
13941;SDS011;7043;51.630;7.254;2023-08-21T07:29:36;6.25;;;3.17;;
13941;SDS011;7043;51.630;7.254;2023-08-21T07:32:02;5.63;;;2.60;;
13941;SDS011;7043;51.630;7.254;2023-08-21T07:34:28;5.88;;;2.58;;
13941;SDS011;7043;51.630;7.254;2023-08-21T07:36:54;7.22;;;2.80;;
13941;SDS011;7043;51.630;7.254;2023-08-21T07:39:20;6.55;;;2.50;;
13941;SDS011;7043;51.630;7.254;2023-08-21T07:41:46;5.55;;;2.80;;
13941;SDS011;7043;51.630;7.254;2023-08-21T07:44:12;6.22;;;2.60;;
13941;SDS011;7043;51.630;7.254;2023-08-21T07:46:38;5.07;;;2.75;;
13941;SDS011;7043;51.630;7.254;2023-08-21T07:49:04;4.63;;;2.60;;
13941;SDS011;7043;51.630;7.254;2023-08-21T07:51:30;4.60;;;2.40;;
13941;SDS011;7043;51.630;7.254;2023-08-21T07:53:56;6.57;;;2.72;;
13941;SDS011;7043;51.630;7.254;2023-08-21T07:56:22;5.30;;;2.72;;
13941;SDS011;7043;51.630;7.254;2023-08-21T07:58:48;7.68;;;2.72;;
13941;SDS011;7043;51.630;7.254;2023-08-21T08:01:14;6.57;;;2.60;;
13941;SDS011;7043;51.630;7.254;2023-08-21T08:03:40;4.95;;;2.50;;
13941;SDS011;7043;51.630;7.254;2023-08-21T08:06:06;4.68;;;2.40;;
13941;SDS011;7043;51.630;7.254;2023-08-21T08:08:32;4.40;;;2.15;;
13941;SDS011;7043;51.630;7.254;2023-08-21T08:11:01;4.47;;;2.30;;
13941;SDS011;7043;51.630;7.254;2023-08-21T08:13:28;5.10;;;2.40;;
13941;SDS011;7043;51.630;7.254;2023-08-21T08:15:53;4.65;;;2.60;;
13941;SDS011;7043;51.630;7.254;2023-08-21T08:18:19;5.95;;;2.25;;
13941;SDS011;7043;51.630;7.254;2023-08-21T08:20:45;4.30;;;2.40;;
13941;SDS011;7043;51.630;7.254;2023-08-21T08:23:11;6.00;;;2.58;;
13941;SDS011;7043;51.630;7.254;2023-08-21T08:25:37;3.67;;;1.98;;
13941;SDS011;7043;51.630;7.254;2023-08-21T08:28:03;5.57;;;1.92;;
13941;SDS011;7043;51.630;7.254;2023-08-21T08:30:29;6.05;;;2.30;;
13941;SDS011;7043;51.630;7.254;2023-08-21T08:32:55;6.75;;;2.22;;
13941;SDS011;7043;51.630;7.254;2023-08-21T08:35:22;4.47;;;1.95;;
13941;SDS011;7043;51.630;7.254;2023-08-21T08:37:48;4.10;;;1.92;;
13941;SDS011;7043;51.630;7.254;2023-08-21T08:40:14;4.15;;;1.75;;
13941;SDS011;7043;51.630;7.254;2023-08-21T08:42:40;4.40;;;1.52;;
13941;SDS011;7043;51.630;7.254;2023-08-21T08:45:06;5.35;;;1.67;;
13941;SDS011;7043;51.630;7.254;2023-08-21T08:47:32;5.43;;;2.08;;
13941;SDS011;7043;51.630;7.254;2023-08-21T08:50:01;4.68;;;1.60;;
13941;SDS011;7043;51.630;7.254;2023-08-21T08:52:28;4.00;;;1.48;;
13941;SDS011;7043;51.630;7.254;2023-08-21T08:54:55;4.47;;;1.70;;
13941;SDS011;7043;51.630;7.254;2023-08-21T08:57:21;3.25;;;1.42;;
13941;SDS011;7043;51.630;7.254;2023-08-21T08:59:47;3.85;;;1.80;;
13941;SDS011;7043;51.630;7.254;2023-08-21T09:02:13;4.25;;;1.38;;
13941;SDS011;7043;51.630;7.254;2023-08-21T09:04:39;3.83;;;1.50;;
13941;SDS011;7043;51.630;7.254;2023-08-21T09:07:05;3.30;;;1.40;;
13941;SDS011;7043;51.630;7.254;2023-08-21T09:09:37;3.50;;;1.58;;
13941;SDS011;7043;51.630;7.254;2023-08-21T09:12:08;3.00;;;1.60;;
13941;SDS011;7043;51.630;7.254;2023-08-21T09:14:35;5.93;;;1.77;;
13941;SDS011;7043;51.630;7.254;2023-08-21T09:17:01;4.55;;;1.60;;
13941;SDS011;7043;51.630;7.254;2023-08-21T09:19:28;3.88;;;1.50;;
13941;SDS011;7043;51.630;7.254;2023-08-21T09:21:57;5.88;;;1.73;;
13941;SDS011;7043;51.630;7.254;2023-08-21T09:24:24;4.03;;;1.45;;
13941;SDS011;7043;51.630;7.254;2023-08-21T09:26:52;3.45;;;1.52;;
13941;SDS011;7043;51.630;7.254;2023-08-21T09:29:18;6.85;;;2.00;;
13941;SDS011;7043;51.630;7.254;2023-08-21T09:31:44;3.97;;;1.60;;
13941;SDS011;7043;51.630;7.254;2023-08-21T09:34:14;4.78;;;1.92;;
13941;SDS011;7043;51.630;7.254;2023-08-21T09:36:43;4.60;;;1.80;;
13941;SDS011;7043;51.630;7.254;2023-08-21T09:39:19;4.57;;;1.48;;
13941;SDS011;7043;51.630;7.254;2023-08-21T09:41:54;4.90;;;1.73;;
13941;SDS011;7043;51.630;7.254;2023-08-21T09:44:21;4.90;;;1.60;;
13941;SDS011;7043;51.630;7.254;2023-08-21T09:46:50;4.28;;;1.85;;
13941;SDS011;7043;51.630;7.254;2023-08-21T09:49:16;4.57;;;1.52;;
13941;SDS011;7043;51.630;7.254;2023-08-21T09:51:43;4.00;;;1.40;;
13941;SDS011;7043;51.630;7.254;2023-08-21T09:54:10;3.45;;;1.45;;
13941;SDS011;7043;51.630;7.254;2023-08-21T09:56:39;4.03;;;1.60;;
13941;SDS011;7043;51.630;7.254;2023-08-21T09:59:05;4.72;;;1.67;;
13941;SDS011;7043;51.630;7.254;2023-08-21T10:01:32;4.28;;;1.33;;
13941;SDS011;7043;51.630;7.254;2023-08-21T10:04:00;3.70;;;1.30;;
13941;SDS011;7043;51.630;7.254;2023-08-21T10:06:28;4.38;;;1.48;;
13941;SDS011;7043;51.630;7.254;2023-08-21T10:08:54;5.03;;;1.40;;
13941;SDS011;7043;51.630;7.254;2023-08-21T10:11:22;3.95;;;1.58;;
13941;SDS011;7043;51.630;7.254;2023-08-21T10:13:50;4.45;;;1.50;;
13941;SDS011;7043;51.630;7.254;2023-08-21T10:16:16;2.53;;;1.48;;
13941;SDS011;7043;51.630;7.254;2023-08-21T10:18:45;5.28;;;1.30;;
13941;SDS011;7043;51.630;7.254;2023-08-21T10:21:12;4.93;;;1.58;;
13941;SDS011;7043;51.630;7.254;2023-08-21T10:23:39;5.75;;;1.70;;
13941;SDS011;7043;51.630;7.254;2023-08-21T10:26:06;5.40;;;1.83;;
13941;SDS011;7043;51.630;7.254;2023-08-21T10:33:53;3.55;;;1.20;;
13941;SDS011;7043;51.630;7.254;2023-08-21T10:39:12;3.40;;;1.30;;
13941;SDS011;7043;51.630;7.254;2023-08-21T10:41:39;5.55;;;1.30;;
13941;SDS011;7043;51.630;7.254;2023-08-21T10:44:05;4.18;;;1.58;;
13941;SDS011;7043;51.630;7.254;2023-08-21T10:46:51;4.28;;;1.30;;
13941;SDS011;7043;51.630;7.254;2023-08-21T10:49:17;3.33;;;1.48;;
13941;SDS011;7043;51.630;7.254;2023-08-21T10:51:43;4.22;;;1.48;;
13941;SDS011;7043;51.630;7.254;2023-08-21T10:54:13;5.22;;;1.38;;
13941;SDS011;7043;51.630;7.254;2023-08-21T10:56:42;4.10;;;1.42;;
13941;SDS011;7043;51.630;7.254;2023-08-21T10:59:08;3.35;;;1.42;;
13941;SDS011;7043;51.630;7.254;2023-08-21T11:01:44;3.50;;;1.40;;
13941;SDS011;7043;51.630;7.254;2023-08-21T11:04:13;3.75;;;1.30;;
13941;SDS011;7043;51.630;7.254;2023-08-21T11:06:39;5.18;;;1.42;;
13941;SDS011;7043;51.630;7.254;2023-08-21T11:09:07;4.65;;;1.35;;
13941;SDS011;7043;51.630;7.254;2023-08-21T11:11:37;4.25;;;1.50;;
13941;SDS011;7043;51.630;7.254;2023-08-21T11:14:03;4.60;;;1.40;;
13941;SDS011;7043;51.630;7.254;2023-08-21T11:16:29;4.07;;;1.40;;
13941;SDS011;7043;51.630;7.254;2023-08-21T11:18:55;3.50;;;1.50;;
13941;SDS011;7043;51.630;7.254;2023-08-21T11:21:22;4.32;;;1.48;;
13941;SDS011;7043;51.630;7.254;2023-08-21T11:23:50;5.05;;;1.40;;
13941;SDS011;7043;51.630;7.254;2023-08-21T11:26:16;4.60;;;1.50;;
13941;SDS011;7043;51.630;7.254;2023-08-21T11:28:42;3.03;;;1.63;;
13941;SDS011;7043;51.630;7.254;2023-08-21T11:31:08;3.72;;;1.42;;
13941;SDS011;7043;51.630;7.254;2023-08-21T11:33:36;4.85;;;1.30;;
13941;SDS011;7043;51.630;7.254;2023-08-21T11:36:04;4.70;;;1.30;;
13941;SDS011;7043;51.630;7.254;2023-08-21T11:38:30;4.13;;;1.40;;
13941;SDS011;7043;51.630;7.254;2023-08-21T11:40:57;5.63;;;1.45;;
13941;SDS011;7043;51.630;7.254;2023-08-21T11:46:19;4.82;;;1.30;;
13941;SDS011;7043;51.630;7.254;2023-08-21T11:48:45;3.22;;;1.35;;
13941;SDS011;7043;51.630;7.254;2023-08-21T11:51:11;3.25;;;1.45;;
13941;SDS011;7043;51.630;7.254;2023-08-21T11:53:38;3.10;;;1.30;;
13941;SDS011;7043;51.630;7.254;2023-08-21T11:56:11;3.58;;;1.63;;
13941;SDS011;7043;51.630;7.254;2023-08-21T11:58:38;3.65;;;1.35;;
13941;SDS011;7043;51.630;7.254;2023-08-21T12:01:04;3.85;;;1.50;;
13941;SDS011;7043;51.630;7.254;2023-08-21T12:03:35;3.03;;;1.35;;
13941;SDS011;7043;51.630;7.254;2023-08-21T12:06:09;3.38;;;1.50;;
13941;SDS011;7043;51.630;7.254;2023-08-21T12:08:37;4.40;;;1.50;;
13941;SDS011;7043;51.630;7.254;2023-08-21T12:11:03;4.07;;;1.65;;
13941;SDS011;7043;51.630;7.254;2023-08-21T12:13:29;3.88;;;1.75;;
13941;SDS011;7043;51.630;7.254;2023-08-21T12:15:55;4.18;;;1.58;;
13941;SDS011;7043;51.630;7.254;2023-08-21T12:18:22;6.63;;;1.92;;
13941;SDS011;7043;51.630;7.254;2023-08-21T12:20:48;4.55;;;1.88;;
13941;SDS011;7043;51.630;7.254;2023-08-21T12:23:14;5.05;;;1.60;;
13941;SDS011;7043;51.630;7.254;2023-08-21T12:25:40;4.55;;;1.45;;
13941;SDS011;7043;51.630;7.254;2023-08-21T12:28:07;3.90;;;1.73;;
13941;SDS011;7043;51.630;7.254;2023-08-21T12:30:33;3.90;;;1.80;;
13941;SDS011;7043;51.630;7.254;2023-08-21T12:33:00;5.28;;;1.80;;
13941;SDS011;7043;51.630;7.254;2023-08-21T12:35:26;4.03;;;1.70;;
13941;SDS011;7043;51.630;7.254;2023-08-21T12:37:56;5.50;;;1.70;;
13941;SDS011;7043;51.630;7.254;2023-08-21T12:40:22;3.10;;;1.60;;
13941;SDS011;7043;51.630;7.254;2023-08-21T12:42:48;4.68;;;1.85;;
13941;SDS011;7043;51.630;7.254;2023-08-21T12:45:15;3.58;;;1.70;;
13941;SDS011;7043;51.630;7.254;2023-08-21T12:47:42;5.68;;;2.05;;
13941;SDS011;7043;51.630;7.254;2023-08-21T12:50:08;3.55;;;1.60;;
13941;SDS011;7043;51.630;7.254;2023-08-21T12:52:34;4.93;;;2.00;;
13941;SDS011;7043;51.630;7.254;2023-08-21T12:55:00;3.58;;;1.67;;
13941;SDS011;7043;51.630;7.254;2023-08-21T12:57:30;4.00;;;1.92;;
13941;SDS011;7043;51.630;7.254;2023-08-21T12:59:56;3.95;;;1.55;;
13941;SDS011;7043;51.630;7.254;2023-08-21T13:02:22;4.35;;;1.50;;
13941;SDS011;7043;51.630;7.254;2023-08-21T13:04:48;3.53;;;1.77;;
13941;SDS011;7043;51.630;7.254;2023-08-21T13:07:14;4.05;;;1.90;;
13941;SDS011;7043;51.630;7.254;2023-08-21T13:09:40;4.07;;;2.20;;
13941;SDS011;7043;51.630;7.254;2023-08-21T13:12:06;5.65;;;2.03;;
13941;SDS011;7043;51.630;7.254;2023-08-21T13:14:33;3.85;;;1.88;;
13941;SDS011;7043;51.630;7.254;2023-08-21T13:16:59;4.47;;;1.80;;
13941;SDS011;7043;51.630;7.254;2023-08-21T13:19:25;3.72;;;1.50;;
13941;SDS011;7043;51.630;7.254;2023-08-21T13:21:51;4.53;;;1.80;;
13941;SDS011;7043;51.630;7.254;2023-08-21T13:24:19;3.72;;;1.95;;
13941;SDS011;7043;51.630;7.254;2023-08-21T13:26:46;3.17;;;1.35;;
13941;SDS011;7043;51.630;7.254;2023-08-21T13:29:12;6.63;;;2.10;;
13941;SDS011;7043;51.630;7.254;2023-08-21T13:31:38;5.28;;;2.17;;
13941;SDS011;7043;51.630;7.254;2023-08-21T13:34:04;4.45;;;1.90;;
13941;SDS011;7043;51.630;7.254;2023-08-21T13:36:30;4.68;;;2.08;;
13941;SDS011;7043;51.630;7.254;2023-08-21T13:38:57;4.07;;;2.05;;
13941;SDS011;7043;51.630;7.254;2023-08-21T13:41:23;3.65;;;2.00;;
13941;SDS011;7043;51.630;7.254;2023-08-21T13:43:49;4.95;;;2.00;;
13941;SDS011;7043;51.630;7.254;2023-08-21T13:46:15;3.83;;;1.90;;
13941;SDS011;7043;51.630;7.254;2023-08-21T13:48:41;5.05;;;1.90;;
13941;SDS011;7043;51.630;7.254;2023-08-21T13:51:08;3.92;;;1.65;;
13941;SDS011;7043;51.630;7.254;2023-08-21T13:53:35;3.95;;;1.77;;
13941;SDS011;7043;51.630;7.254;2023-08-21T13:56:02;4.88;;;1.75;;
13941;SDS011;7043;51.630;7.254;2023-08-21T13:58:28;4.78;;;2.13;;
13941;SDS011;7043;51.630;7.254;2023-08-21T14:00:55;4.75;;;2.00;;
13941;SDS011;7043;51.630;7.254;2023-08-21T14:03:22;3.17;;;1.80;;
13941;SDS011;7043;51.630;7.254;2023-08-21T14:05:48;4.97;;;2.10;;
13941;SDS011;7043;51.630;7.254;2023-08-21T14:08:14;6.07;;;2.10;;
13941;SDS011;7043;51.630;7.254;2023-08-21T14:10:40;5.03;;;1.80;;
13941;SDS011;7043;51.630;7.254;2023-08-21T14:13:06;5.07;;;1.70;;
13941;SDS011;7043;51.630;7.254;2023-08-21T14:15:33;4.43;;;2.35;;
13941;SDS011;7043;51.630;7.254;2023-08-21T14:17:59;4.18;;;2.22;;
13941;SDS011;7043;51.630;7.254;2023-08-21T14:20:25;4.93;;;2.40;;
13941;SDS011;7043;51.630;7.254;2023-08-21T14:22:51;4.85;;;2.30;;
13941;SDS011;7043;51.630;7.254;2023-08-21T14:25:17;3.28;;;1.83;;
13941;SDS011;7043;51.630;7.254;2023-08-21T14:27:43;4.82;;;1.73;;
13941;SDS011;7043;51.630;7.254;2023-08-21T14:30:09;4.28;;;1.98;;
13941;SDS011;7043;51.630;7.254;2023-08-21T14:32:36;4.07;;;2.38;;
13941;SDS011;7043;51.630;7.254;2023-08-21T14:35:02;5.93;;;2.08;;
13941;SDS011;7043;51.630;7.254;2023-08-21T14:37:28;4.20;;;2.00;;
13941;SDS011;7043;51.630;7.254;2023-08-21T14:39:54;4.07;;;1.85;;
13941;SDS011;7043;51.630;7.254;2023-08-21T14:42:20;5.38;;;2.10;;
13941;SDS011;7043;51.630;7.254;2023-08-21T14:44:46;4.97;;;2.17;;
13941;SDS011;7043;51.630;7.254;2023-08-21T14:47:12;11.13;;;2.05;;
13941;SDS011;7043;51.630;7.254;2023-08-21T14:49:38;5.15;;;2.00;;
13941;SDS011;7043;51.630;7.254;2023-08-21T14:52:04;5.20;;;2.10;;
13941;SDS011;7043;51.630;7.254;2023-08-21T14:54:32;3.83;;;1.83;;
13941;SDS011;7043;51.630;7.254;2023-08-21T14:56:59;5.80;;;1.85;;
13941;SDS011;7043;51.630;7.254;2023-08-21T14:59:25;4.40;;;2.15;;
13941;SDS011;7043;51.630;7.254;2023-08-21T15:01:51;4.65;;;2.00;;
13941;SDS011;7043;51.630;7.254;2023-08-21T15:04:17;4.80;;;2.30;;
13941;SDS011;7043;51.630;7.254;2023-08-21T15:06:43;5.00;;;1.73;;
13941;SDS011;7043;51.630;7.254;2023-08-21T15:09:10;5.28;;;2.03;;
13941;SDS011;7043;51.630;7.254;2023-08-21T15:11:36;4.28;;;2.08;;
13941;SDS011;7043;51.630;7.254;2023-08-21T15:14:02;3.30;;;2.00;;